createdAt,value
2023-03-01T00:02:08.068Z,58.10
2023-03-01T00:04:36.741Z,57.20
2023-03-01T00:07:04.850Z,56.30
2023-03-01T00:09:33.389Z,56.40
2023-03-01T00:12:01.598Z,56.20
2023-03-01T00:14:29.633Z,56.80
2023-03-01T00:16:59.327Z,58.40
2023-03-01T00:19:27.421Z,60.40
2023-03-01T00:21:55.530Z,62.10
2023-03-01T00:24:23.570Z,63.10
2023-03-01T00:26:56.869Z,65.90
2023-03-01T00:29:25.728Z,67.90
2023-03-01T00:31:53.877Z,71.00
2023-03-01T00:34:23.345Z,71.30
2023-03-01T00:36:51.365Z,70.00
2023-03-01T00:39:19.423Z,68.80
2023-03-01T00:41:47.444Z,67.70
2023-03-01T00:44:15.766Z,67.60
2023-03-01T00:46:44.026Z,68.30
2023-03-01T00:49:12.097Z,66.10
2023-03-01T00:51:42.525Z,66.00
2023-03-01T00:54:11.375Z,67.50
2023-03-01T00:56:39.806Z,70.80
2023-03-01T00:59:07.897Z,74.20
2023-03-01T01:01:36.130Z,74.00
2023-03-01T01:04:07.486Z,71.70
2023-03-01T01:06:38.931Z,72.10
2023-03-01T01:09:09.786Z,73.50
2023-03-01T01:11:38.321Z,76.30
2023-03-01T01:14:07.072Z,82.30
2023-03-01T01:16:35.393Z,86.00
2023-03-01T01:19:03.781Z,89.70
2023-03-01T01:21:32.944Z,91.20
2023-03-01T01:24:01.659Z,90.50
2023-03-01T01:26:34.130Z,91.10
2023-03-01T01:29:05.530Z,90.80
2023-03-01T01:31:35.563Z,88.90
2023-03-01T01:34:08.057Z,87.20
2023-03-01T01:36:36.998Z,87.80
2023-03-01T01:39:06.180Z,90.20
2023-03-01T01:41:35.910Z,90.70
2023-03-01T01:44:19.135Z,93.80
2023-03-01T01:46:52.351Z,96.50
2023-03-01T01:49:33.190Z,99.90
2023-03-01T01:52:13.826Z,99.90
2023-03-01T01:54:48.833Z,99.90
2023-03-01T01:57:25.684Z,99.90
2023-03-01T02:00:00.424Z,99.90
2023-03-01T02:02:29.310Z,99.90
2023-03-01T02:05:12.480Z,99.90
2023-03-01T02:07:42.011Z,99.90
2023-03-01T02:10:12.000Z,99.90
2023-03-01T02:12:42.048Z,99.90
2023-03-01T02:15:11.081Z,99.90
2023-03-01T02:17:40.518Z,95.50
2023-03-01T02:20:21.441Z,91.70
2023-03-01T02:22:50.881Z,90.60
2023-03-01T02:25:46.942Z,91.20
2023-03-01T02:28:31.543Z,91.70
2023-03-01T02:31:17.756Z,91.60
2023-03-01T02:33:49.181Z,93.10
2023-03-01T02:36:28.716Z,95.00
2023-03-01T02:39:03.507Z,97.00
2023-03-01T02:41:37.741Z,99.10
2023-03-01T02:44:08.530Z,97.80
2023-03-01T02:46:45.146Z,96.20
2023-03-01T02:49:27.141Z,95.70
2023-03-01T02:52:23.693Z,99.40
2023-03-01T02:55:00.434Z,99.90
2023-03-01T02:57:32.100Z,99.90
2023-03-01T03:00:09.177Z,99.90
2023-03-01T03:02:38.202Z,99.90
2023-03-01T03:05:11.712Z,99.90
2023-03-01T03:07:42.794Z,99.90
2023-03-01T03:10:15.513Z,99.90
2023-03-01T03:12:44.200Z,99.90
2023-03-01T03:15:13.919Z,99.90
2023-03-01T03:17:46.229Z,99.90
2023-03-01T03:20:19.964Z,99.90
2023-03-01T03:22:49.845Z,99.90
2023-03-01T03:25:19.832Z,99.90
2023-03-01T03:27:50.694Z,99.90
2023-03-01T03:30:22.617Z,99.90
2023-03-01T03:32:54.017Z,99.90
2023-03-01T03:35:26.530Z,99.90
2023-03-01T03:38:03.826Z,99.90
2023-03-01T03:40:35.190Z,99.90
2023-03-01T03:43:03.842Z,99.90
2023-03-01T03:45:34.398Z,99.90
2023-03-01T03:48:03.819Z,99.90
2023-03-01T03:50:32.064Z,99.90
2023-03-01T03:53:02.422Z,99.90
2023-03-01T03:55:31.666Z,99.90
2023-03-01T03:58:03.396Z,99.90
2023-03-01T04:00:33.025Z,99.90
2023-03-01T04:03:01.734Z,99.90
2023-03-01T04:05:30.525Z,99.90
2023-03-01T04:08:08.205Z,99.90
2023-03-01T04:10:39.508Z,99.90
2023-03-01T04:13:09.625Z,99.90
2023-03-01T04:15:39.629Z,99.90
2023-03-01T04:18:09.236Z,99.90
2023-03-01T04:20:37.908Z,99.90
2023-03-01T04:23:16.906Z,99.90
2023-03-01T04:25:54.596Z,99.90
2023-03-01T04:28:25.438Z,99.90
2023-03-01T04:30:57.303Z,99.90
2023-03-01T04:33:27.398Z,99.90
2023-03-01T04:35:55.600Z,99.90
2023-03-01T04:38:23.747Z,99.90
2023-03-01T04:40:51.863Z,99.90
2023-03-01T04:43:19.903Z,99.90
2023-03-01T04:45:48.054Z,99.90
2023-03-01T04:48:17.511Z,99.90
2023-03-01T04:50:45.658Z,99.90
2023-03-01T04:53:13.721Z,99.90
2023-03-01T04:55:41.785Z,99.90
2023-03-01T04:58:10.122Z,99.90
2023-03-01T05:00:38.254Z,99.90
2023-03-01T05:03:06.503Z,99.90
2023-03-01T05:05:38.748Z,99.90
2023-03-01T05:08:18.301Z,99.90
2023-03-01T05:10:50.213Z,99.90
2023-03-01T05:13:22.016Z,99.90
2023-03-01T05:15:51.247Z,99.90
2023-03-01T05:18:19.706Z,99.90
2023-03-01T05:20:49.380Z,99.90
2023-03-01T05:23:17.512Z,99.90
2023-03-01T05:25:45.685Z,99.90
2023-03-01T05:28:14.726Z,99.90
2023-03-01T05:30:43.367Z,99.90
2023-03-01T05:33:14.317Z,99.90
2023-03-01T05:35:43.493Z,99.90
2023-03-01T05:38:15.152Z,99.90
2023-03-01T05:40:45.555Z,99.90
2023-03-01T05:43:16.281Z,99.90
2023-03-01T05:45:45.405Z,99.90
2023-03-01T05:48:14.999Z,99.90
2023-03-01T05:50:46.663Z,99.90
2023-03-01T05:53:18.658Z,99.90
2023-03-01T05:55:48.428Z,99.90
2023-03-01T05:58:19.977Z,99.90
2023-03-01T06:00:51.157Z,99.90
2023-03-01T06:03:20.364Z,99.90
2023-03-01T06:05:48.739Z,99.90
2023-03-01T06:08:18.314Z,99.90
2023-03-01T06:10:46.381Z,99.90
2023-03-01T06:13:14.539Z,99.90
2023-03-01T06:15:42.936Z,99.90
2023-03-01T06:18:11.391Z,99.90
2023-03-01T06:20:39.442Z,99.90
2023-03-01T06:23:09.116Z,99.90
2023-03-01T06:25:39.859Z,99.90
2023-03-01T06:28:07.875Z,99.90
2023-03-01T06:30:36.160Z,99.90
2023-03-01T06:33:05.084Z,99.90
2023-03-01T06:35:33.379Z,99.90
2023-03-01T06:38:05.289Z,99.90
2023-03-01T06:40:36.323Z,99.90
2023-03-01T06:43:07.542Z,99.90
2023-03-01T06:45:36.112Z,99.90
2023-03-01T06:48:06.362Z,99.90
2023-03-01T06:50:35.518Z,99.90
2023-03-01T06:53:04.773Z,99.90
2023-03-01T06:55:33.684Z,99.90
2023-03-01T06:58:04.202Z,99.90
2023-03-01T07:00:34.241Z,99.90
2023-03-01T07:03:04.283Z,99.90
2023-03-01T07:05:33.006Z,99.00
2023-03-01T07:08:01.081Z,95.00
2023-03-01T07:10:29.267Z,94.10
2023-03-01T07:12:58.478Z,92.50
2023-03-01T07:15:28.047Z,91.40
2023-03-01T07:17:58.733Z,90.20
2023-03-01T07:20:27.249Z,88.40
2023-03-01T07:22:56.218Z,86.00
2023-03-01T07:25:24.388Z,85.20
2023-03-01T07:27:53.448Z,77.80
2023-03-01T07:30:22.844Z,78.40
2023-03-01T07:32:51.057Z,78.60
2023-03-01T07:35:20.538Z,77.30
2023-03-01T07:37:48.619Z,75.90
2023-03-01T07:40:16.960Z,74.10
2023-03-01T07:42:45.064Z,71.00
2023-03-01T07:45:14.408Z,70.00
2023-03-01T07:47:42.517Z,68.00
2023-03-01T07:50:12.497Z,67.30
2023-03-01T07:52:41.904Z,64.10
2023-03-01T07:55:10.843Z,62.10
2023-03-01T07:57:40.236Z,63.60
2023-03-01T08:00:12.813Z,61.70
2023-03-01T08:02:42.811Z,61.00
2023-03-01T08:05:11.914Z,59.00
2023-03-01T08:07:41.339Z,58.50
2023-03-01T08:10:11.148Z,57.50
2023-03-01T08:12:39.163Z,54.80
2023-03-01T08:15:09.203Z,53.70
2023-03-01T08:17:37.230Z,52.80
2023-03-01T08:20:07.442Z,51.70
2023-03-01T08:22:35.660Z,52.50
2023-03-01T08:25:05.944Z,49.10
2023-03-01T08:27:33.948Z,47.60
2023-03-01T08:30:02.036Z,43.70
2023-03-01T08:32:30.235Z,41.50
2023-03-01T08:34:58.465Z,38.70
2023-03-01T08:37:27.445Z,37.00
2023-03-01T08:39:55.866Z,36.40
2023-03-01T08:42:25.326Z,33.60
2023-03-01T08:44:53.369Z,32.60
2023-03-01T08:47:21.461Z,30.50
2023-03-01T08:49:51.829Z,29.70
2023-03-01T08:52:19.852Z,29.20
2023-03-01T08:54:49.533Z,27.50
2023-03-01T08:57:17.733Z,26.40
2023-03-01T08:59:47.248Z,26.00
2023-03-01T09:02:18.528Z,24.80
2023-03-01T09:04:46.880Z,23.30
2023-03-01T09:07:14.920Z,23.00
2023-03-01T09:09:43.078Z,23.20
2023-03-01T09:12:11.292Z,23.10
2023-03-01T09:14:39.831Z,22.80
2023-03-01T09:17:09.301Z,22.60
2023-03-01T09:19:37.932Z,22.30
2023-03-01T09:22:06.569Z,22.40
2023-03-01T09:24:34.840Z,21.80
2023-03-01T09:27:03.862Z,21.50
2023-03-01T09:29:32.093Z,20.90
2023-03-01T09:32:00.640Z,21.50
2023-03-01T09:34:30.326Z,20.30
2023-03-01T09:37:03.344Z,18.40
2023-03-01T09:39:31.352Z,18.40
2023-03-01T09:42:04.038Z,19.60
2023-03-01T09:44:40.852Z,18.40
2023-03-01T09:47:18.314Z,17.30
2023-03-01T09:50:04.236Z,15.40
2023-03-01T09:52:42.375Z,16.80
2023-03-01T09:55:17.055Z,17.20
2023-03-01T09:57:53.706Z,17.80
2023-03-01T10:00:39.036Z,18.20
2023-03-01T10:03:19.008Z,18.20
2023-03-01T10:05:59.961Z,17.90
2023-03-01T10:08:42.713Z,18.20
2023-03-01T10:11:25.127Z,17.90
2023-03-01T10:14:03.921Z,17.30
2023-03-01T10:16:45.099Z,17.50
2023-03-01T10:19:19.584Z,17.60
2023-03-01T10:21:50.738Z,17.50
2023-03-01T10:24:22.651Z,17.40
2023-03-01T10:26:57.610Z,17.40
2023-03-01T10:29:33.998Z,17.30
2023-03-01T10:32:02.764Z,16.90
2023-03-01T10:34:34.315Z,16.60
2023-03-01T10:37:14.122Z,16.90
2023-03-01T10:39:59.928Z,17.10
2023-03-01T10:42:32.655Z,16.70
2023-03-01T10:45:18.264Z,16.90
2023-03-01T10:47:46.369Z,16.70
2023-03-01T10:50:24.699Z,14.60
2023-03-01T10:53:02.962Z,14.60
2023-03-01T10:55:37.438Z,16.40
2023-03-01T10:58:20.134Z,15.90
2023-03-01T11:00:53.731Z,16.00
2023-03-01T11:03:27.707Z,15.80
2023-03-01T11:06:07.438Z,16.30
2023-03-01T11:08:43.715Z,14.60
2023-03-01T11:11:33.403Z,14.10
2023-03-01T11:14:23.506Z,14.50
2023-03-01T11:17:03.750Z,14.20
2023-03-01T11:19:32.836Z,14.20
2023-03-01T11:22:13.824Z,14.50
2023-03-01T11:24:57.240Z,14.80
2023-03-01T11:27:38.186Z,14.30
2023-03-01T11:30:20.396Z,14.40
2023-03-01T11:32:59.284Z,14.70
2023-03-01T11:35:31.583Z,14.40
2023-03-01T11:38:17.638Z,13.50
2023-03-01T11:40:56.059Z,14.20
2023-03-01T11:43:36.206Z,13.60
2023-03-01T11:46:53.666Z,13.70
2023-03-01T11:50:04.506Z,14.20
2023-03-01T11:52:50.903Z,14.40
2023-03-01T11:55:38.777Z,13.80
2023-03-01T11:58:28.611Z,14.10
2023-03-01T12:01:19.494Z,14.10
2023-03-01T12:04:24.542Z,14.10
2023-03-01T12:07:02.488Z,13.70
2023-03-01T12:09:49.875Z,13.50
2023-03-01T12:12:39.816Z,14.50
2023-03-01T12:15:46.100Z,14.30
2023-03-01T12:19:01.537Z,14.40
2023-03-01T12:21:47.716Z,16.20
2023-03-01T12:24:49.317Z,14.90
2023-03-01T12:27:39.300Z,14.70
2023-03-01T12:30:33.277Z,14.60
2023-03-01T12:33:20.781Z,14.60
2023-03-01T12:36:43.416Z,15.00
2023-03-01T12:39:35.788Z,16.30
2023-03-01T12:42:16.854Z,15.60
2023-03-01T12:45:28.434Z,14.90
2023-03-01T12:48:26.220Z,14.20
2023-03-01T12:51:01.324Z,15.60
2023-03-01T12:53:34.144Z,16.00
2023-03-01T12:56:10.032Z,15.10
2023-03-01T12:58:53.373Z,14.90
2023-03-01T13:01:39.343Z,14.80
2023-03-01T13:04:39.405Z,14.90
2023-03-01T13:07:26.782Z,14.70
2023-03-01T13:10:10.035Z,16.00
2023-03-01T13:12:47.794Z,16.50
2023-03-01T13:15:37.395Z,15.30
2023-03-01T13:18:32.887Z,15.30
2023-03-01T13:21:04.020Z,16.30
2023-03-01T13:23:36.999Z,16.70
2023-03-01T13:26:13.762Z,16.60
2023-03-01T13:28:50.580Z,16.80
2023-03-01T13:32:02.746Z,16.10
2023-03-01T13:34:57.495Z,16.20
2023-03-01T13:37:36.313Z,15.30
2023-03-01T13:40:48.947Z,16.70
2023-03-01T13:43:33.009Z,15.40
2023-03-01T13:46:04.034Z,16.40
2023-03-01T13:48:34.828Z,16.70
2023-03-01T13:51:09.633Z,16.80
2023-03-01T13:53:44.835Z,16.30
2023-03-01T13:56:18.826Z,15.40
2023-03-01T13:58:52.557Z,16.30
2023-03-01T14:01:30.772Z,15.80
2023-03-01T14:04:01.939Z,16.40
2023-03-01T14:06:37.524Z,16.20
2023-03-01T14:09:22.502Z,16.70
2023-03-01T14:12:19.784Z,16.70
2023-03-01T14:15:03.338Z,16.40
2023-03-01T14:17:52.213Z,16.60
2023-03-01T14:20:24.280Z,16.80
2023-03-01T14:22:57.687Z,16.70
2023-03-01T14:25:30.970Z,16.50
2023-03-01T14:28:13.926Z,16.70
2023-03-01T14:30:46.358Z,16.60
2023-03-01T14:33:28.060Z,16.90
2023-03-01T14:36:03.000Z,16.90
2023-03-01T14:38:36.714Z,16.70
2023-03-01T14:41:10.449Z,16.90
2023-03-01T14:43:41.129Z,17.20
2023-03-01T14:46:22.590Z,17.00
2023-03-01T14:48:54.034Z,17.20
2023-03-01T14:51:22.807Z,17.70
2023-03-01T14:53:53.606Z,17.50
2023-03-01T14:56:22.041Z,17.50
2023-03-01T14:58:55.064Z,17.40
2023-03-01T15:01:24.018Z,17.10
2023-03-01T15:03:53.231Z,17.50
2023-03-01T15:06:24.966Z,17.60
2023-03-01T15:08:58.220Z,17.30
2023-03-01T15:11:30.751Z,17.20
2023-03-01T15:14:00.078Z,17.90
2023-03-01T15:16:32.738Z,17.70
2023-03-01T15:19:04.428Z,17.80
2023-03-01T15:21:37.241Z,17.90
2023-03-01T15:24:21.347Z,18.10
2023-03-01T15:26:58.340Z,18.10
2023-03-01T15:29:30.901Z,17.90
2023-03-01T15:32:04.871Z,18.00
2023-03-01T15:34:35.354Z,18.00
2023-03-01T15:37:06.517Z,18.40
2023-03-01T15:39:45.068Z,18.60
2023-03-01T15:42:17.594Z,18.20
2023-03-01T15:44:46.140Z,18.30
2023-03-01T15:47:32.681Z,18.50
2023-03-01T15:50:02.919Z,18.10
2023-03-01T15:52:40.222Z,18.20
2023-03-01T15:55:20.319Z,18.50
2023-03-01T15:57:49.853Z,18.60
2023-03-01T16:00:20.110Z,18.60
2023-03-01T16:02:48.339Z,18.50
2023-03-01T16:05:24.093Z,18.70
2023-03-01T16:07:52.418Z,18.40
2023-03-01T16:10:22.690Z,18.90
2023-03-01T16:12:52.576Z,18.70
2023-03-01T16:15:24.956Z,18.60
2023-03-01T16:17:54.066Z,18.80
2023-03-01T16:20:28.352Z,19.00
2023-03-01T16:22:58.857Z,19.00
2023-03-01T16:25:28.359Z,19.00
2023-03-01T16:27:57.019Z,19.00
2023-03-01T16:30:25.403Z,19.10
2023-03-01T16:32:53.707Z,19.40
2023-03-01T16:35:24.573Z,20.10
2023-03-01T16:37:54.851Z,19.60
2023-03-01T16:40:26.924Z,19.50
2023-03-01T16:43:02.020Z,19.80
2023-03-01T16:45:35.027Z,20.10
2023-03-01T16:48:03.255Z,20.20
2023-03-01T16:50:31.312Z,20.30
2023-03-01T16:52:59.557Z,20.50
2023-03-01T16:55:27.669Z,20.60
2023-03-01T16:57:57.228Z,20.90
2023-03-01T17:00:25.525Z,21.40
2023-03-01T17:02:56.306Z,21.90
2023-03-01T17:05:25.926Z,22.40
2023-03-01T17:07:56.558Z,22.40
2023-03-01T17:10:24.740Z,22.70
2023-03-01T17:12:53.479Z,22.70
2023-03-01T17:15:22.871Z,23.00
2023-03-01T17:17:51.997Z,23.30
2023-03-01T17:20:20.548Z,23.50
2023-03-01T17:22:48.838Z,23.20
2023-03-01T17:25:17.130Z,23.30
2023-03-01T17:27:45.285Z,23.40
2023-03-01T17:30:16.574Z,23.90
2023-03-01T17:32:46.170Z,23.70
2023-03-01T17:35:14.547Z,23.70
2023-03-01T17:37:46.361Z,24.10
2023-03-01T17:40:15.280Z,24.40
2023-03-01T17:42:43.474Z,24.80
2023-03-01T17:45:12.461Z,25.20
2023-03-01T17:47:40.534Z,25.70
2023-03-01T17:50:12.363Z,26.20
2023-03-01T17:52:41.292Z,26.20
2023-03-01T17:55:11.493Z,26.50
2023-03-01T17:57:40.995Z,26.90
2023-03-01T18:00:15.414Z,27.40
2023-03-01T18:02:44.123Z,27.80
2023-03-01T18:05:13.914Z,28.30
2023-03-01T18:07:41.967Z,28.60
2023-03-01T18:10:12.069Z,29.60
2023-03-01T18:12:41.499Z,29.70
2023-03-01T18:15:10.801Z,30.90
2023-03-01T18:17:39.605Z,33.80
2023-03-01T18:20:09.633Z,35.20
2023-03-01T18:22:39.277Z,35.40
2023-03-01T18:25:08.603Z,35.20
2023-03-01T18:27:37.033Z,35.80
2023-03-01T18:30:07.382Z,35.60
2023-03-01T18:32:35.690Z,36.70
2023-03-01T18:35:03.754Z,38.60
2023-03-01T18:37:32.126Z,41.60
2023-03-01T18:40:02.088Z,43.10
2023-03-01T18:42:30.141Z,48.10
2023-03-01T18:44:58.185Z,53.60
2023-03-01T18:47:26.413Z,58.00
2023-03-01T18:49:54.435Z,61.40
2023-03-01T18:52:22.519Z,63.00
2023-03-01T18:54:50.610Z,64.90
2023-03-01T18:57:20.065Z,64.90
2023-03-01T18:59:48.080Z,63.10
2023-03-01T19:02:16.417Z,65.30
2023-03-01T19:04:44.889Z,61.90
2023-03-01T19:07:13.500Z,61.20
2023-03-01T19:09:42.017Z,64.30
2023-03-01T19:12:10.130Z,64.30
2023-03-01T19:14:39.520Z,62.70
2023-03-01T19:17:07.581Z,62.10
2023-03-01T19:19:36.404Z,62.40
2023-03-01T19:22:06.320Z,66.60
2023-03-01T19:24:34.708Z,69.30
2023-03-01T19:27:02.776Z,68.90
2023-03-01T19:29:30.849Z,69.80
2023-03-01T19:32:00.439Z,71.50
2023-03-01T19:34:28.533Z,72.40
2023-03-01T19:36:56.636Z,76.10
2023-03-01T19:39:24.747Z,78.70
2023-03-01T19:41:52.898Z,83.20
2023-03-01T19:44:24.790Z,83.50
2023-03-01T19:46:54.035Z,83.10
2023-03-01T19:49:23.604Z,85.80
2023-03-01T19:51:52.860Z,85.40
2023-03-01T19:54:21.751Z,88.50
2023-03-01T19:56:51.566Z,90.90
2023-03-01T19:59:24.238Z,91.90
2023-03-01T20:01:53.042Z,92.50
2023-03-01T20:04:21.562Z,93.40
2023-03-01T20:06:51.245Z,94.10
2023-03-01T20:09:22.278Z,94.20
2023-03-01T20:11:51.734Z,95.40
2023-03-01T20:14:23.607Z,95.00
2023-03-01T20:16:52.406Z,98.00
2023-03-01T20:19:20.863Z,99.90
2023-03-01T20:21:50.521Z,97.20
2023-03-01T20:24:18.564Z,96.70
2023-03-01T20:26:46.713Z,97.00
2023-03-01T20:29:14.853Z,95.50
2023-03-01T20:31:43.009Z,93.40
2023-03-01T20:34:11.245Z,90.80
2023-03-01T20:36:40.951Z,91.60
2023-03-01T20:39:11.725Z,94.80
2023-03-01T20:41:40.068Z,97.70
2023-03-01T20:44:09.415Z,99.90
2023-03-01T20:46:38.534Z,99.90
2023-03-01T20:49:07.310Z,99.20
2023-03-01T20:51:35.427Z,95.10
2023-03-01T20:54:03.734Z,91.50
2023-03-01T20:56:33.479Z,90.50
2023-03-01T20:59:01.706Z,87.00
2023-03-01T21:01:30.990Z,83.50
2023-03-01T21:03:59.045Z,82.70
2023-03-01T21:06:27.222Z,78.90
2023-03-01T21:08:56.806Z,71.60
2023-03-01T21:11:25.920Z,67.30
2023-03-01T21:13:56.806Z,69.10
2023-03-01T21:16:26.499Z,72.60
2023-03-01T21:18:54.873Z,76.70
2023-03-01T21:21:24.980Z,83.20
2023-03-01T21:23:53.062Z,91.60
2023-03-01T21:26:23.735Z,94.90
2023-03-01T21:28:57.407Z,99.40
2023-03-01T21:31:28.552Z,99.90
2023-03-01T21:33:59.879Z,99.90
2023-03-01T21:36:33.719Z,99.90
2023-03-01T21:39:02.826Z,99.90
2023-03-01T21:41:34.106Z,99.90
2023-03-01T21:44:07.860Z,99.90
2023-03-01T21:46:40.385Z,99.90
2023-03-01T21:49:10.184Z,99.90
2023-03-01T21:51:38.827Z,99.90
2023-03-01T21:54:07.904Z,99.90
2023-03-01T21:56:39.272Z,99.90
2023-03-01T21:59:13.716Z,99.90
2023-03-01T22:01:42.241Z,99.90
2023-03-01T22:04:13.271Z,99.90
2023-03-01T22:06:43.913Z,99.90
2023-03-01T22:09:16.585Z,99.90
2023-03-01T22:11:48.920Z,99.90
2023-03-01T22:14:20.284Z,99.90
2023-03-01T22:16:51.689Z,99.90
2023-03-01T22:19:20.690Z,99.90
2023-03-01T22:21:52.007Z,99.90
2023-03-01T22:24:24.029Z,99.90
2023-03-01T22:26:54.551Z,99.90
2023-03-01T22:29:29.029Z,99.90
2023-03-01T22:31:58.840Z,99.90
2023-03-01T22:34:27.817Z,99.90
2023-03-01T22:36:56.589Z,99.90
2023-03-01T22:39:24.713Z,99.90
2023-03-01T22:41:55.615Z,99.90
2023-03-01T22:44:25.991Z,99.90
2023-03-01T22:46:54.672Z,99.90
2023-03-01T22:49:23.487Z,99.90
2023-03-01T22:51:52.998Z,99.90
2023-03-01T22:54:21.786Z,99.90
2023-03-01T22:56:51.062Z,99.90
2023-03-01T22:59:23.206Z,99.90
2023-03-01T23:01:54.917Z,99.90
2023-03-01T23:04:24.907Z,99.90
2023-03-01T23:06:54.318Z,99.90
2023-03-01T23:09:26.937Z,97.60
2023-03-01T23:11:56.685Z,87.50
2023-03-01T23:14:26.033Z,75.90
2023-03-01T23:16:55.987Z,68.00
2023-03-01T23:19:24.881Z,62.90
2023-03-01T23:21:54.450Z,56.20
2023-03-01T23:24:25.855Z,51.70
2023-03-01T23:26:54.304Z,50.60
2023-03-01T23:29:23.423Z,50.10
2023-03-01T23:31:51.646Z,50.40
2023-03-01T23:34:21.281Z,51.20
2023-03-01T23:36:49.659Z,52.80
2023-03-01T23:39:17.879Z,52.90
2023-03-01T23:41:46.475Z,53.10
2023-03-01T23:44:18.614Z,53.60
2023-03-01T23:46:48.796Z,51.80
2023-03-01T23:49:23.275Z,49.00
2023-03-01T23:51:53.253Z,47.20
2023-03-01T23:54:25.396Z,47.10
2023-03-01T23:56:53.840Z,48.30
2023-03-01T23:59:24.368Z,49.00
